Haslingden, United Kingdom
Current Conditions -  °F | °C
As of 12:20 PM on Thursday 18 Dec 2014 (Local Time) from EGNO Reporting Station
Broken Clouds Broken Clouds  
Wind Chill: 54°   Ceiling: 2900
Heat Index: 54°   Visibility: 6mi
Dew Point: 52°   Wind: 22mph
Humidity: 94%   Direction: 240°WSW
Pressure: 29.56"   Gusts: 33mph
Location:  53.7°N, 2.32°W
Report Text: EGNO 181220Z 24019G29KT 9999 FEW013 BKN029 12/11 Q1001
Loading
Personal Weather Stations






























Interactive Weather Map New forecast layout! Learn more

10-Day Weather Forecast

Advertisements
Track Severe Weather on mobile